createdAt,value
2024-03-12T00:01:09.076Z,96492.88
2024-03-12T00:03:36.664Z,96489.13
2024-03-12T00:06:04.422Z,96499.63
2024-03-12T00:08:31.146Z,96496.50
2024-03-12T00:10:58.514Z,96501.28
2024-03-12T00:13:25.412Z,96503.81
2024-03-12T00:15:52.170Z,96500.63
2024-03-12T00:18:18.877Z,96505.53
2024-03-12T00:20:46.881Z,96501.16
2024-03-12T00:23:13.740Z,96494.06
2024-03-12T00:25:41.883Z,96503.16
2024-03-12T00:28:09.894Z,96510.84
2024-03-12T00:30:39.243Z,96502.53
2024-03-12T00:33:06.829Z,96509.56
2024-03-12T00:35:35.328Z,96494.63
2024-03-12T00:38:05.287Z,96502.78
2024-03-12T00:40:35.460Z,96492.28
2024-03-12T00:43:04.062Z,96496.13
2024-03-12T00:45:38.073Z,96504.50
2024-03-12T00:48:07.021Z,96492.06
2024-03-12T00:50:37.887Z,96493.75
2024-03-12T00:53:04.957Z,96495.91
2024-03-12T00:55:32.145Z,96491.38
2024-03-12T00:58:00.053Z,96504.78
2024-03-12T01:00:29.321Z,96507.13
2024-03-12T01:02:59.284Z,96509.34
2024-03-12T01:05:27.462Z,96496.41
2024-03-12T01:07:55.578Z,96497.81
2024-03-12T01:10:22.845Z,96505.84
2024-03-12T01:12:52.873Z,96508.38
2024-03-12T01:15:20.132Z,96502.13
2024-03-12T01:17:47.495Z,96509.53
2024-03-12T01:20:17.839Z,96506.19
2024-03-12T01:22:44.948Z,96500.84
2024-03-12T01:25:12.644Z,96508.19
2024-03-12T01:27:40.495Z,96507.56
2024-03-12T01:30:08.288Z,96508.91
2024-03-12T01:32:40.029Z,96512.56
2024-03-12T01:35:09.438Z,96498.78
2024-03-12T01:37:37.738Z,96503.16
2024-03-12T01:40:20.475Z,96496.84
2024-03-12T01:42:50.911Z,96491.13
2024-03-12T01:45:19.280Z,96485.81
2024-03-12T01:47:46.813Z,96491.53
2024-03-12T01:50:13.976Z,96484.13
2024-03-12T01:52:40.691Z,96477.00
2024-03-12T01:55:08.007Z,96488.03
2024-03-12T01:57:34.957Z,96492.13
2024-03-12T02:00:11.100Z,96492.16
2024-03-12T02:02:38.676Z,96489.19
2024-03-12T02:05:06.640Z,96495.50
2024-03-12T02:07:35.238Z,96485.91
2024-03-12T02:10:02.290Z,96484.66
2024-03-12T02:12:29.119Z,96485.41
2024-03-12T02:14:55.754Z,96480.56
2024-03-12T02:17:23.136Z,96476.88
2024-03-12T02:19:49.884Z,96481.81
2024-03-12T02:22:16.520Z,96483.50
2024-03-12T02:24:43.153Z,96492.91
2024-03-12T02:27:10.573Z,96496.53
2024-03-12T02:29:37.382Z,96490.78
2024-03-12T02:32:04.444Z,96495.47
2024-03-12T02:34:31.054Z,96486.03
2024-03-12T02:36:57.771Z,96486.06
2024-03-12T02:39:24.512Z,96484.41
2024-03-12T02:41:51.506Z,96484.41
2024-03-12T02:44:18.473Z,96486.81
2024-03-12T02:46:45.980Z,96484.59
2024-03-12T02:49:15.218Z,96482.25
2024-03-12T02:51:42.013Z,96484.41
2024-03-12T02:54:08.651Z,96481.97
2024-03-12T02:56:35.287Z,96482.25
2024-03-12T02:59:02.656Z,96488.56
2024-03-12T03:01:29.447Z,96495.53
2024-03-12T03:03:58.670Z,96482.81
2024-03-12T03:06:25.800Z,96492.53
2024-03-12T03:08:52.592Z,96497.59
2024-03-12T03:11:19.338Z,96488.63
2024-03-12T03:13:46.132Z,96492.47
2024-03-12T03:16:13.071Z,96498.16
2024-03-12T03:18:39.752Z,96507.38
2024-03-12T03:21:08.391Z,96496.97
2024-03-12T03:23:40.550Z,96506.91
2024-03-12T03:26:07.244Z,96501.31
2024-03-12T03:28:33.909Z,96511.50
2024-03-12T03:31:01.460Z,96499.59
2024-03-12T03:33:28.452Z,96494.81
2024-03-12T03:35:55.407Z,96495.03
2024-03-12T03:38:22.493Z,96502.38
2024-03-12T03:40:49.295Z,96510.13
2024-03-12T03:43:16.023Z,96507.72
2024-03-12T03:45:42.729Z,96502.38
2024-03-12T03:48:10.165Z,96507.91
2024-03-12T03:50:37.055Z,96521.38
2024-03-12T03:53:03.703Z,96516.81
2024-03-12T03:55:30.336Z,96516.81
2024-03-12T03:57:56.955Z,96505.75
2024-03-12T04:00:29.755Z,96513.59
2024-03-12T04:02:57.861Z,96516.03
2024-03-12T04:05:24.592Z,96522.06
2024-03-12T04:07:51.914Z,96517.66
2024-03-12T04:10:18.612Z,96526.28
2024-03-12T04:12:46.649Z,96518.69
2024-03-12T04:15:14.144Z,96532.84
2024-03-12T04:17:44.565Z,96529.75
2024-03-12T04:20:12.554Z,96534.53
2024-03-12T04:22:40.038Z,96534.19
2024-03-12T04:25:08.434Z,96536.25
2024-03-12T04:27:39.061Z,96542.94
2024-03-12T04:30:06.734Z,96536.66
2024-03-12T04:32:33.645Z,96558.81
2024-03-12T04:35:00.380Z,96566.63
2024-03-12T04:37:32.816Z,96554.97
2024-03-12T04:40:07.757Z,96562.50
2024-03-12T04:42:39.064Z,96565.34
2024-03-12T04:45:07.868Z,96558.22
2024-03-12T04:47:36.688Z,96564.91
2024-03-12T04:50:04.285Z,96570.88
2024-03-12T04:52:31.147Z,96567.44
2024-03-12T04:54:58.250Z,96578.09
2024-03-12T04:57:25.143Z,96579.22
2024-03-12T04:59:51.824Z,96575.59
2024-03-12T05:02:18.429Z,96582.84
2024-03-12T05:04:45.153Z,96589.13
2024-03-12T05:07:13.006Z,96594.41
2024-03-12T05:09:39.846Z,96593.28
2024-03-12T05:12:06.630Z,96591.31
2024-03-12T05:14:33.237Z,96600.22
2024-03-12T05:17:00.439Z,96605.84
2024-03-12T05:19:27.384Z,96602.84
2024-03-12T05:21:54.101Z,96611.66
2024-03-12T05:24:20.969Z,96615.50
2024-03-12T05:26:50.501Z,96607.56
2024-03-12T05:29:18.770Z,96608.91
2024-03-12T05:31:45.604Z,96625.50
2024-03-12T05:34:20.150Z,96618.63
2024-03-12T05:36:50.047Z,96628.56
2024-03-12T05:39:45.959Z,96631.44
2024-03-12T05:42:31.227Z,96640.13
2024-03-12T05:45:16.402Z,96633.16
2024-03-12T05:48:02.746Z,96646.06
2024-03-12T05:50:29.437Z,96658.19
2024-03-12T05:52:56.092Z,96664.41
2024-03-12T05:55:22.789Z,96661.66
2024-03-12T05:57:49.424Z,96669.22
2024-03-12T06:00:16.162Z,96673.97
2024-03-12T06:02:43.066Z,96666.56
2024-03-12T06:05:15.996Z,96678.19
2024-03-12T06:07:43.509Z,96674.16
2024-03-12T06:10:10.486Z,96677.03
2024-03-12T06:12:37.810Z,96689.78
2024-03-12T06:15:08.003Z,96683.72
2024-03-12T06:17:34.881Z,96684.94
2024-03-12T06:20:01.586Z,96700.22
2024-03-12T06:22:28.398Z,96702.59
2024-03-12T06:24:55.199Z,96696.47
2024-03-12T06:27:22.493Z,96714.47
2024-03-12T06:29:53.141Z,96712.38
2024-03-12T06:32:22.716Z,96717.88
2024-03-12T06:34:49.540Z,96717.50
2024-03-12T06:37:16.843Z,96735.31
2024-03-12T06:39:45.790Z,96736.09
2024-03-12T06:42:13.804Z,96734.03
2024-03-12T06:44:43.593Z,96733.00
2024-03-12T06:47:11.516Z,96731.63
2024-03-12T06:49:39.886Z,96744.06
2024-03-12T06:52:08.012Z,96745.84
2024-03-12T06:54:36.248Z,96750.72
2024-03-12T06:57:05.553Z,96747.78
2024-03-12T06:59:34.009Z,96749.44
2024-03-12T07:02:04.599Z,96747.94
2024-03-12T07:04:44.605Z,96754.41
2024-03-12T07:07:12.813Z,96752.09
2024-03-12T07:09:42.237Z,96760.00
2024-03-12T07:12:09.765Z,96770.53
2024-03-12T07:14:56.254Z,96770.78
2024-03-12T07:17:23.870Z,96766.44
2024-03-12T07:19:50.905Z,96770.31
2024-03-12T07:22:18.823Z,96776.06
2024-03-12T07:24:45.655Z,96779.38
2024-03-12T07:27:14.611Z,96775.34
2024-03-12T07:29:44.522Z,96772.97
2024-03-12T07:32:11.478Z,96784.16
2024-03-12T07:34:40.420Z,96779.31
2024-03-12T07:37:07.911Z,96778.25
2024-03-12T07:39:37.500Z,96797.59
2024-03-12T07:42:13.622Z,96781.78
2024-03-12T07:44:42.344Z,96798.59
2024-03-12T07:47:11.092Z,96804.31
2024-03-12T07:49:38.303Z,96803.72
2024-03-12T07:52:06.961Z,96792.88
2024-03-12T07:54:34.614Z,96796.75
2024-03-12T07:57:01.725Z,96815.41
2024-03-12T07:59:31.475Z,96812.09
2024-03-12T08:01:58.963Z,96814.44
2024-03-12T08:04:29.015Z,96821.66
2024-03-12T08:06:56.146Z,96822.78
2024-03-12T08:09:24.242Z,96821.75
2024-03-12T08:11:50.923Z,96831.88
2024-03-12T08:14:18.791Z,96827.94
2024-03-12T08:16:45.723Z,96820.34
2024-03-12T08:19:12.504Z,96815.97
2024-03-12T08:21:40.250Z,96824.44
2024-03-12T08:24:07.093Z,96814.97
2024-03-12T08:26:33.783Z,96821.75
2024-03-12T08:29:00.517Z,96819.50
2024-03-12T08:31:33.322Z,96822.66
2024-03-12T08:34:06.176Z,96821.53
2024-03-12T08:36:34.577Z,96815.13
2024-03-12T08:39:02.026Z,96814.56
2024-03-12T08:41:28.632Z,96810.28
2024-03-12T08:43:55.394Z,96813.94
2024-03-12T08:46:22.060Z,96798.66
2024-03-12T08:48:48.758Z,96820.72
2024-03-12T08:51:15.613Z,96808.63
2024-03-12T08:53:42.391Z,96815.00
2024-03-12T08:56:10.491Z,96816.63
2024-03-12T08:58:37.297Z,96809.53
2024-03-12T09:01:05.887Z,96804.91
2024-03-12T09:03:32.910Z,96810.38
2024-03-12T09:06:00.508Z,96813.13
2024-03-12T09:08:27.281Z,96798.84
2024-03-12T09:10:54.554Z,96815.06
2024-03-12T09:13:21.466Z,96811.13
2024-03-12T09:15:52.711Z,96811.25
2024-03-12T09:18:24.437Z,96803.50
2024-03-12T09:20:53.781Z,96818.34
2024-03-12T09:23:20.428Z,96811.25
2024-03-12T09:25:48.223Z,96814.25
2024-03-12T09:28:18.012Z,96828.38
2024-03-12T09:30:44.918Z,96827.19
2024-03-12T09:33:12.115Z,96837.47
2024-03-12T09:35:39.169Z,96844.47
2024-03-12T09:38:10.625Z,96836.75
2024-03-12T09:40:46.332Z,96847.84
2024-03-12T09:43:14.726Z,96835.56
2024-03-12T09:45:41.818Z,96838.03
2024-03-12T09:48:09.545Z,96847.91
2024-03-12T09:50:36.849Z,96846.31
2024-03-12T09:53:03.571Z,96854.78
2024-03-12T09:55:33.069Z,96858.69
2024-03-12T09:57:59.881Z,96878.47
2024-03-12T10:00:29.304Z,96869.22
2024-03-12T10:03:00.962Z,96863.88
2024-03-12T10:05:29.053Z,96881.53
2024-03-12T10:08:15.542Z,96879.44
2024-03-12T10:10:46.566Z,96869.66
2024-03-12T10:13:16.343Z,96884.81
2024-03-12T10:16:05.494Z,96890.31
2024-03-12T10:18:38.267Z,96893.34
2024-03-12T10:21:05.124Z,96886.56
2024-03-12T10:23:34.736Z,96903.31
2024-03-12T10:26:14.166Z,96907.16
2024-03-12T10:28:41.515Z,96905.50
2024-03-12T10:31:13.458Z,96899.81
2024-03-12T10:33:46.539Z,96918.34
2024-03-12T10:36:13.768Z,96934.31
2024-03-12T10:38:41.699Z,96919.44
2024-03-12T10:41:18.871Z,96919.94
2024-03-12T10:43:47.314Z,96930.41
2024-03-12T10:46:21.135Z,96929.03
2024-03-12T10:48:52.247Z,96938.97
2024-03-12T10:51:20.463Z,96942.81
2024-03-12T10:53:54.476Z,96935.28
2024-03-12T10:56:22.910Z,96936.69
2024-03-12T10:58:50.363Z,96944.97
2024-03-12T11:01:21.197Z,96939.09
2024-03-12T11:03:49.328Z,96951.50
2024-03-12T11:06:16.371Z,96946.66
2024-03-12T11:08:47.063Z,96951.56
2024-03-12T11:11:15.474Z,96945.19
2024-03-12T11:13:43.091Z,96954.03
2024-03-12T11:16:16.879Z,96952.88
2024-03-12T11:18:44.448Z,96947.34
2024-03-12T11:21:19.921Z,96951.34
2024-03-12T11:23:49.421Z,96952.56
2024-03-12T11:26:16.443Z,96955.09
2024-03-12T11:28:51.244Z,96953.69
2024-03-12T11:31:21.733Z,96944.63
2024-03-12T11:33:50.711Z,96944.72
2024-03-12T11:36:41.767Z,96959.94
2024-03-12T11:39:24.310Z,96949.31
2024-03-12T11:42:09.444Z,96954.63
2024-03-12T11:44:56.451Z,96947.53
2024-03-12T11:47:37.968Z,96950.09
2024-03-12T11:50:25.702Z,96952.75
2024-03-12T11:52:52.403Z,96943.56
2024-03-12T11:55:59.400Z,96953.47
2024-03-12T11:58:28.800Z,96959.28
2024-03-12T12:00:56.322Z,96950.69
2024-03-12T12:03:24.341Z,96954.38
2024-03-12T12:05:55.420Z,96960.97
2024-03-12T12:08:23.113Z,96962.72
2024-03-12T12:11:01.536Z,96950.78
2024-03-12T12:13:30.531Z,96962.09
2024-03-12T12:16:05.534Z,96957.31
2024-03-12T12:18:34.708Z,96958.84
2024-03-12T12:21:04.326Z,96964.75
2024-03-12T12:23:31.410Z,96970.44
2024-03-12T12:25:58.507Z,96964.72
2024-03-12T12:28:26.627Z,96962.00
2024-03-12T12:30:56.503Z,96967.13
2024-03-12T12:33:26.262Z,96969.44
2024-03-12T12:35:55.473Z,96986.34
2024-03-12T12:38:23.110Z,96979.59
2024-03-12T12:40:49.975Z,96977.84
2024-03-12T12:43:21.029Z,96983.06
2024-03-12T12:45:47.812Z,96974.31
2024-03-12T12:48:15.776Z,96978.81
2024-03-12T12:50:43.218Z,96977.47
2024-03-12T12:53:10.932Z,96977.06
2024-03-12T12:55:40.583Z,96982.59
2024-03-12T12:58:08.861Z,96991.94
2024-03-12T13:00:40.325Z,96985.84
2024-03-12T13:03:13.419Z,96998.59
2024-03-12T13:05:42.820Z,96999.06
2024-03-12T13:08:30.840Z,96993.50
2024-03-12T13:11:10.030Z,96994.16
2024-03-12T13:13:42.198Z,97008.13
2024-03-12T13:16:19.296Z,96999.53
2024-03-12T13:18:47.930Z,97005.34
2024-03-12T13:21:16.483Z,97006.28
2024-03-12T13:23:46.996Z,97012.88
2024-03-12T13:26:14.679Z,97004.16
2024-03-12T13:28:46.531Z,97004.66
2024-03-12T13:31:14.021Z,97014.31
2024-03-12T13:33:41.605Z,97011.22
2024-03-12T13:36:11.118Z,97014.34
2024-03-12T13:38:40.672Z,97014.28
2024-03-12T13:41:11.265Z,97015.06
2024-03-12T13:43:41.672Z,97023.94
2024-03-12T13:46:08.642Z,97023.16
2024-03-12T13:48:41.194Z,97016.94
2024-03-12T13:51:09.178Z,97026.16
2024-03-12T13:53:36.020Z,97021.66
2024-03-12T13:56:03.683Z,97021.19
2024-03-12T13:58:30.856Z,97027.28
2024-03-12T14:00:59.169Z,97029.91
2024-03-12T14:03:30.783Z,97032.00
2024-03-12T14:05:58.542Z,97035.69
2024-03-12T14:08:25.239Z,97045.06
2024-03-12T14:10:53.004Z,97050.91
2024-03-12T14:13:22.697Z,97045.09
2024-03-12T14:15:49.811Z,97045.31
2024-03-12T14:18:22.833Z,97046.50
2024-03-12T14:20:52.620Z,97041.75
2024-03-12T14:23:20.031Z,97046.16
2024-03-12T14:25:46.864Z,97056.69
2024-03-12T14:28:13.623Z,97060.19
2024-03-12T14:30:40.388Z,97052.28
2024-03-12T14:33:07.457Z,97055.78
2024-03-12T14:35:34.115Z,97060.81
2024-03-12T14:38:00.996Z,97054.34
2024-03-12T14:40:27.836Z,97056.59
2024-03-12T14:42:55.904Z,97070.41
2024-03-12T14:45:25.976Z,97076.72
2024-03-12T14:47:52.695Z,97079.72
2024-03-12T14:50:19.558Z,97082.16
2024-03-12T14:52:47.021Z,97094.81
2024-03-12T14:55:14.312Z,97094.91
2024-03-12T14:57:42.057Z,97089.28
2024-03-12T15:00:11.417Z,97093.31
2024-03-12T15:02:38.490Z,97099.81
2024-03-12T15:05:21.420Z,97105.97
2024-03-12T15:07:48.244Z,97104.06
2024-03-12T15:10:16.492Z,97115.06
2024-03-12T15:12:44.633Z,97121.56
2024-03-12T15:15:13.180Z,97116.22
2024-03-12T15:17:40.768Z,97113.78
2024-03-12T15:20:15.569Z,97126.75
2024-03-12T15:22:46.674Z,97122.56
2024-03-12T15:25:13.962Z,97121.63
2024-03-12T15:27:42.991Z,97117.50
2024-03-12T15:30:10.614Z,97126.09
2024-03-12T15:32:39.307Z,97115.66
2024-03-12T15:35:06.963Z,97132.00
2024-03-12T15:37:33.747Z,97125.81
2024-03-12T15:40:01.291Z,97115.84
2024-03-12T15:42:29.245Z,97126.97
2024-03-12T15:44:56.672Z,97120.69
2024-03-12T15:47:23.912Z,97127.09
2024-03-12T15:49:51.367Z,97131.88
2024-03-12T15:52:18.665Z,97127.31
2024-03-12T15:54:48.174Z,97136.06
2024-03-12T15:57:18.189Z,97133.19
2024-03-12T15:59:47.290Z,97143.25
2024-03-12T16:02:14.856Z,97145.03
2024-03-12T16:04:41.966Z,97146.84
2024-03-12T16:07:08.834Z,97149.75
2024-03-12T16:09:35.849Z,97140.09
2024-03-12T16:12:02.512Z,97142.22
2024-03-12T16:14:29.136Z,97153.44
2024-03-12T16:16:56.344Z,97151.69
2024-03-12T16:19:23.883Z,97153.72
2024-03-12T16:21:50.932Z,97147.59
2024-03-12T16:24:17.577Z,97151.38
2024-03-12T16:26:44.267Z,97142.09
2024-03-12T16:29:10.871Z,97148.66
2024-03-12T16:31:37.551Z,97152.47
2024-03-12T16:34:05.710Z,97155.00
2024-03-12T16:36:35.546Z,97150.78
2024-03-12T16:39:05.311Z,97153.44
2024-03-12T16:41:32.247Z,97162.38
2024-03-12T16:44:00.698Z,97164.41
2024-03-12T16:46:27.294Z,97158.78
2024-03-12T16:48:53.957Z,97170.09
2024-03-12T16:51:20.575Z,97164.69
2024-03-12T16:53:47.369Z,97164.16
2024-03-12T16:58:45.599Z,97172.34
2024-03-12T17:01:13.493Z,97173.50
2024-03-12T17:03:41.574Z,97175.91
2024-03-12T17:06:08.864Z,97176.41
2024-03-12T17:08:35.739Z,97182.69
2024-03-12T17:11:02.683Z,97172.91
2024-03-12T17:13:29.609Z,97181.41
2024-03-12T17:15:56.737Z,97185.09
2024-03-12T17:18:24.264Z,97179.59
2024-03-12T17:20:53.117Z,97188.25
2024-03-12T17:23:19.980Z,97185.56
2024-03-12T17:25:46.811Z,97183.56
2024-03-12T17:28:14.455Z,97187.72
2024-03-12T17:30:41.416Z,97195.72
2024-03-12T17:33:08.737Z,97197.56
2024-03-12T17:35:36.558Z,97199.94
2024-03-12T17:38:03.869Z,97204.13
2024-03-12T17:40:33.699Z,97204.28
2024-03-12T17:43:01.772Z,97206.84
2024-03-12T17:45:28.633Z,97216.75
2024-03-12T17:47:58.258Z,97210.72
2024-03-12T17:50:28.419Z,97214.59
2024-03-12T17:52:59.696Z,97214.25
2024-03-12T17:55:27.925Z,97204.66
2024-03-12T17:57:55.993Z,97219.66
2024-03-12T18:00:23.091Z,97212.88
2024-03-12T18:02:50.905Z,97212.41
2024-03-12T18:05:20.623Z,97215.28
2024-03-12T18:07:49.180Z,97225.53
2024-03-12T18:10:17.878Z,97224.19
2024-03-12T18:12:46.369Z,97239.03
2024-03-12T18:15:16.174Z,97242.75
2024-03-12T18:17:44.433Z,97250.16
2024-03-12T18:20:31.088Z,97251.50
2024-03-12T18:22:58.609Z,97243.78
2024-03-12T18:25:25.560Z,97248.63
2024-03-12T18:27:54.556Z,97252.50
2024-03-12T18:30:21.519Z,97252.50
2024-03-12T18:32:51.514Z,97260.25
2024-03-12T18:35:19.905Z,97264.66
2024-03-12T18:37:46.750Z,97261.59
2024-03-12T18:40:18.772Z,97252.69
2024-03-12T18:42:49.362Z,97254.19
2024-03-12T18:45:19.909Z,97259.09
2024-03-12T18:47:51.187Z,97257.22
2024-03-12T18:50:19.206Z,97260.06
2024-03-12T18:52:46.893Z,97256.00
2024-03-12T18:55:14.456Z,97260.25
2024-03-12T18:57:43.400Z,97258.88
2024-03-12T19:00:24.158Z,97264.31
2024-03-12T19:02:52.911Z,97265.13
2024-03-12T19:05:25.456Z,97267.19
2024-03-12T19:07:53.084Z,97262.31
2024-03-12T19:10:21.866Z,97269.00
2024-03-12T19:12:49.207Z,97272.88
2024-03-12T19:15:22.691Z,97266.31
2024-03-12T19:17:51.962Z,97282.31
2024-03-12T19:20:20.532Z,97281.47
2024-03-12T19:22:52.223Z,97279.28
2024-03-12T19:25:20.052Z,97287.50
2024-03-12T19:27:48.892Z,97293.88
2024-03-12T19:30:20.565Z,97284.81
2024-03-12T19:32:49.463Z,97286.75
2024-03-12T19:35:16.692Z,97288.72
2024-03-12T19:37:44.840Z,97298.59
2024-03-12T19:40:18.868Z,97295.75
2024-03-12T19:42:47.669Z,97294.38
2024-03-12T19:45:18.970Z,97295.25
2024-03-12T19:47:49.719Z,97295.81
2024-03-12T19:50:17.807Z,97305.53
2024-03-12T19:52:47.395Z,97302.53
2024-03-12T19:55:19.945Z,97300.13
2024-03-12T19:57:56.148Z,97306.00
2024-03-12T20:00:33.703Z,97306.53
2024-03-12T20:03:05.949Z,97313.91
2024-03-12T20:05:33.504Z,97313.91
2024-03-12T20:08:05.575Z,97321.63
2024-03-12T20:10:33.370Z,97318.44
2024-03-12T20:13:00.661Z,97321.81
2024-03-12T20:15:29.060Z,97320.56
2024-03-12T20:17:56.313Z,97323.47
2024-03-12T20:20:24.073Z,97324.09
2024-03-12T20:22:54.605Z,97325.56
2024-03-12T20:25:25.459Z,97332.09
2024-03-12T20:27:56.405Z,97332.47
2024-03-12T20:30:29.092Z,97326.88
2024-03-12T20:32:59.000Z,97328.38
2024-03-12T20:35:28.473Z,97340.16
2024-03-12T20:37:56.300Z,97329.00
2024-03-12T20:40:26.042Z,97324.06
2024-03-12T20:42:53.779Z,97335.69
2024-03-12T20:45:22.603Z,97330.53
2024-03-12T20:47:49.987Z,97334.25
2024-03-12T20:50:20.303Z,97333.13
2024-03-12T20:52:48.068Z,97333.53
2024-03-12T20:55:15.649Z,97328.47
2024-03-12T20:57:49.318Z,97333.06
2024-03-12T21:00:19.081Z,97322.91
2024-03-12T21:02:49.491Z,97331.31
2024-03-12T21:05:16.937Z,97341.28
2024-03-12T21:07:44.677Z,97334.81
2024-03-12T21:10:12.576Z,97332.66
2024-03-12T21:12:43.547Z,97336.91
2024-03-12T21:15:10.945Z,97337.97
2024-03-12T21:17:37.895Z,97341.34
2024-03-12T21:20:13.558Z,97345.22
2024-03-12T21:22:40.476Z,97335.41
2024-03-12T21:25:08.141Z,97344.97
2024-03-12T21:27:35.105Z,97340.72
2024-03-12T21:30:06.336Z,97346.56
2024-03-12T21:32:33.523Z,97347.69
2024-03-12T21:35:00.727Z,97344.50
2024-03-12T21:37:27.511Z,97342.81
2024-03-12T21:39:54.151Z,97347.16
2024-03-12T21:42:23.110Z,97349.56
2024-03-12T21:44:49.804Z,97350.50
2024-03-12T21:47:16.438Z,97340.88
2024-03-12T21:49:43.088Z,97347.41
2024-03-12T21:52:09.825Z,97347.22
2024-03-12T21:54:36.599Z,97348.84
2024-03-12T21:57:03.305Z,97346.38
2024-03-12T21:59:31.070Z,97351.84
2024-03-12T22:02:00.428Z,97354.75
2024-03-12T22:04:27.403Z,97356.16
2024-03-12T22:06:55.589Z,97347.31
2024-03-12T22:09:23.066Z,97352.34
2024-03-12T22:11:51.320Z,97355.25
2024-03-12T22:14:20.851Z,97360.81
2024-03-12T22:16:47.538Z,97355.53
2024-03-12T22:19:15.426Z,97353.44
2024-03-12T22:21:48.823Z,97360.72
2024-03-12T22:24:23.045Z,97353.66
2024-03-12T22:26:51.742Z,97357.84
2024-03-12T22:29:19.033Z,97345.94
2024-03-12T22:31:46.276Z,97352.22
2024-03-12T22:34:12.892Z,97362.97
2024-03-12T22:36:39.619Z,97357.41
2024-03-12T22:39:06.639Z,97364.56
2024-03-12T22:41:34.527Z,97354.94
2024-03-12T22:44:01.785Z,97364.00
2024-03-12T22:46:28.928Z,97367.41
2024-03-12T22:48:56.101Z,97365.22
2024-03-12T22:51:23.001Z,97365.66
2024-03-12T22:53:49.830Z,97367.34
2024-03-12T22:56:20.473Z,97362.00
2024-03-12T22:58:47.781Z,97361.31
2024-03-12T23:01:17.750Z,97363.03
2024-03-12T23:03:45.707Z,97365.16
2024-03-12T23:06:12.891Z,97363.66
2024-03-12T23:08:40.046Z,97369.84
2024-03-12T23:11:06.890Z,97359.22
2024-03-12T23:13:35.240Z,97377.38
2024-03-12T23:16:03.197Z,97375.03
2024-03-12T23:18:31.362Z,97370.78
2024-03-12T23:20:58.159Z,97379.81
2024-03-12T23:23:24.983Z,97382.66
2024-03-12T23:25:52.564Z,97376.75
2024-03-12T23:28:21.457Z,97374.44
2024-03-12T23:30:48.602Z,97375.38
2024-03-12T23:33:15.653Z,97378.47
2024-03-12T23:35:43.277Z,97376.75
2024-03-12T23:38:12.412Z,97379.97
2024-03-12T23:40:39.569Z,97376.47
2024-03-12T23:43:06.624Z,97375.03
2024-03-12T23:45:33.966Z,97376.44
2024-03-12T23:48:03.457Z,97377.56
2024-03-12T23:50:30.754Z,97368.50
2024-03-12T23:52:57.558Z,97373.25
2024-03-12T23:55:25.501Z,97374.47
2024-03-12T23:57:54.164Z,97376.22
